createdAt,value
2022-10-19T00:01:02.913Z,22.07
2022-10-19T00:03:32.551Z,22.07
2022-10-19T00:06:00.762Z,23.20
2022-10-19T00:08:29.075Z,18.70
2022-10-19T00:10:57.209Z,20.37
2022-10-19T00:13:25.334Z,18.80
2022-10-19T00:15:53.514Z,19.73
2022-10-19T00:18:21.788Z,22.30
2022-10-19T00:20:51.274Z,21.97
2022-10-19T00:23:20.921Z,24.37
2022-10-19T00:25:56.304Z,19.50
2022-10-19T00:28:24.463Z,21.03
2022-10-19T00:30:52.640Z,28.20
2022-10-19T00:33:22.508Z,22.57
2022-10-19T00:35:52.465Z,19.97
2022-10-19T00:38:21.046Z,18.40
2022-10-19T00:40:49.809Z,21.80
2022-10-19T00:43:18.602Z,21.40
2022-10-19T00:45:46.730Z,25.07
2022-10-19T00:48:16.208Z,18.03
2022-10-19T00:50:45.254Z,20.77
2022-10-19T00:53:14.873Z,21.40
2022-10-19T00:55:43.167Z,21.13
2022-10-19T00:58:11.504Z,21.97
2022-10-19T01:00:39.900Z,24.00
2022-10-19T01:03:08.684Z,21.20
2022-10-19T01:05:36.924Z,20.83
2022-10-19T01:08:05.448Z,26.50
2022-10-19T01:10:40.209Z,24.47
2022-10-19T01:30:34.567Z,24.23
2022-10-19T01:33:10.655Z,23.00
2022-10-19T01:35:41.592Z,29.63
2022-10-19T01:38:15.679Z,21.30
2022-10-19T01:40:46.527Z,24.23
2022-10-19T01:43:17.715Z,21.70
2022-10-19T01:45:49.223Z,27.57
2022-10-19T01:48:19.357Z,22.97
2022-10-19T01:50:49.474Z,24.50
2022-10-19T01:53:19.694Z,23.50
2022-10-19T01:55:49.485Z,31.13
2022-10-19T01:58:19.516Z,26.70
2022-10-19T02:00:50.244Z,30.33
2022-10-19T02:03:18.908Z,17.20
2022-10-19T02:05:47.614Z,23.20
2022-10-19T02:08:18.983Z,25.37
2022-10-19T02:10:47.454Z,25.43
2022-10-19T02:13:16.567Z,22.03
2022-10-19T02:15:46.412Z,25.50
2022-10-19T02:18:17.325Z,24.90
2022-10-19T02:20:45.481Z,24.93
2022-10-19T02:23:13.876Z,23.97
2022-10-19T02:25:42.004Z,22.03
2022-10-19T02:28:10.220Z,18.13
2022-10-19T02:30:38.372Z,19.53
2022-10-19T02:33:07.840Z,27.00
2022-10-19T02:35:37.377Z,24.03
2022-10-19T02:38:07.027Z,24.10
2022-10-19T02:40:37.925Z,22.47
2022-10-19T02:43:07.617Z,29.00
2022-10-19T02:45:38.185Z,23.30
2022-10-19T02:48:07.884Z,22.90
2022-10-19T02:50:37.468Z,25.23
2022-10-19T02:53:05.648Z,22.83
2022-10-19T02:55:33.847Z,27.53
2022-10-19T02:58:02.043Z,25.37
2022-10-19T03:00:30.226Z,21.07
2022-10-19T03:02:58.369Z,25.53
2022-10-19T03:05:26.525Z,25.50
2022-10-19T03:07:56.019Z,22.53
2022-10-19T03:10:24.180Z,24.00
2022-10-19T03:12:52.330Z,30.17
2022-10-19T03:15:23.736Z,25.13
2022-10-19T03:17:54.091Z,28.10
2022-10-19T03:20:22.216Z,24.60
2022-10-19T03:22:50.605Z,27.57
2022-10-19T03:25:20.173Z,25.00
2022-10-19T03:27:48.332Z,29.77
2022-10-19T03:30:16.480Z,26.37
2022-10-19T03:32:44.621Z,26.87
2022-10-19T03:35:12.932Z,23.87
2022-10-19T03:37:41.109Z,28.23
2022-10-19T03:40:09.706Z,18.23
2022-10-19T03:42:39.293Z,22.93
2022-10-19T03:45:08.004Z,31.90
2022-10-19T03:47:36.359Z,25.07
2022-10-19T03:50:05.949Z,24.17
2022-10-19T03:52:34.087Z,23.40
2022-10-19T03:55:02.247Z,22.97
2022-10-19T03:57:30.478Z,24.63
2022-10-19T03:59:59.996Z,22.70
2022-10-19T04:02:28.221Z,25.27
2022-10-19T04:04:56.366Z,32.73
2022-10-19T04:07:24.544Z,26.67
2022-10-19T04:09:52.660Z,28.70
2022-10-19T04:12:20.819Z,24.97
2022-10-19T04:14:57.702Z,28.30
2022-10-19T04:17:27.809Z,25.43
2022-10-19T04:19:55.956Z,23.67
2022-10-19T04:22:24.102Z,24.87
2022-10-19T04:24:52.247Z,27.03
2022-10-19T04:27:21.501Z,33.33
2022-10-19T04:29:49.649Z,29.73
2022-10-19T04:32:17.802Z,27.83
2022-10-19T04:34:47.306Z,32.90
2022-10-19T04:37:15.456Z,27.87
2022-10-19T04:39:44.496Z,33.50
2022-10-19T04:42:12.658Z,32.13
2022-10-19T04:44:40.813Z,24.93
2022-10-19T04:47:08.943Z,30.00
2022-10-19T04:49:37.100Z,28.87
2022-10-19T04:52:06.776Z,32.17
2022-10-19T04:54:34.917Z,34.83
2022-10-19T04:57:03.157Z,27.90
2022-10-19T04:59:31.302Z,30.53
2022-10-19T05:01:59.466Z,31.53
2022-10-19T05:04:27.644Z,28.30
2022-10-19T05:06:55.793Z,31.17
2022-10-19T05:09:25.466Z,26.07
2022-10-19T05:11:53.603Z,25.93
2022-10-19T05:14:21.786Z,30.77
2022-10-19T05:16:49.991Z,33.50
2022-10-19T05:19:18.169Z,29.10
2022-10-19T05:21:46.324Z,47.93
2022-10-19T05:24:14.522Z,66.23
2022-10-19T05:26:44.036Z,51.87
2022-10-19T05:29:13.632Z,46.90
2022-10-19T05:31:41.817Z,76.57
2022-10-19T05:34:10.096Z,79.93
2022-10-19T05:36:39.270Z,61.40
2022-10-19T05:39:08.432Z,55.37
2022-10-19T05:41:36.645Z,64.60
2022-10-19T05:44:06.876Z,63.40
2022-10-19T05:46:35.644Z,67.43
2022-10-19T05:49:03.790Z,48.70
2022-10-19T05:51:31.957Z,58.33
2022-10-19T05:54:00.307Z,57.20
2022-10-19T05:56:29.493Z,59.97
2022-10-19T05:58:58.345Z,54.17
2022-10-19T06:01:28.605Z,52.63
2022-10-19T06:03:57.419Z,56.53
2022-10-19T06:06:26.035Z,55.90
2022-10-19T06:08:54.744Z,64.50
2022-10-19T06:11:24.364Z,51.27
2022-10-19T06:13:53.485Z,58.90
2022-10-19T06:16:21.771Z,54.40
2022-10-19T06:18:51.464Z,47.33
2022-10-19T06:21:21.180Z,48.77
2022-10-19T06:23:52.022Z,55.27
2022-10-19T06:26:20.500Z,53.87
2022-10-19T06:28:49.420Z,55.27
2022-10-19T06:31:17.874Z,52.77
2022-10-19T06:33:49.213Z,58.57
2022-10-19T06:36:20.252Z,56.40
2022-10-19T06:38:48.986Z,54.93
2022-10-19T06:41:17.275Z,56.67
2022-10-19T06:43:45.428Z,61.57
2022-10-19T06:46:15.524Z,50.60
2022-10-19T06:48:43.687Z,46.27
2022-10-19T06:51:13.523Z,47.20
2022-10-19T06:53:43.031Z,72.57
2022-10-19T06:56:11.787Z,46.23
2022-10-19T06:58:40.476Z,45.97
2022-10-19T07:01:09.503Z,47.07
2022-10-19T07:03:38.095Z,67.40
2022-10-19T07:06:07.090Z,77.00
2022-10-19T07:08:35.801Z,44.33
2022-10-19T07:11:06.766Z,45.37
2022-10-19T07:13:35.055Z,78.43
2022-10-19T07:16:05.506Z,52.80
2022-10-19T07:18:33.711Z,49.73
2022-10-19T07:21:03.340Z,48.93
2022-10-19T07:23:32.109Z,51.37
2022-10-19T07:26:02.046Z,51.40
2022-10-19T07:28:31.951Z,63.13
2022-10-19T07:31:00.174Z,49.20
2022-10-19T07:33:28.879Z,54.77
2022-10-19T07:36:00.430Z,41.57
2022-10-19T07:38:29.756Z,46.93
2022-10-19T07:41:05.043Z,47.70
2022-10-19T07:43:34.735Z,43.70
2022-10-19T07:46:03.516Z,49.93
2022-10-19T07:48:31.750Z,42.63
2022-10-19T07:51:00.330Z,48.90
2022-10-19T07:53:28.523Z,46.13
2022-10-19T07:55:56.715Z,43.83
2022-10-19T07:58:24.867Z,45.03
2022-10-19T08:01:00.788Z,40.83
2022-10-19T08:04:14.279Z,43.97
2022-10-19T08:06:18.994Z,44.23
2022-10-19T08:08:47.449Z,45.37
2022-10-19T08:11:16.408Z,39.40
2022-10-19T08:13:44.766Z,38.43
2022-10-19T08:16:23.599Z,41.30
2022-10-19T08:18:51.739Z,41.00
2022-10-19T08:21:20.119Z,40.33
2022-10-19T08:23:48.431Z,40.30
2022-10-19T08:26:16.600Z,35.00
2022-10-19T08:28:44.800Z,39.40
2022-10-19T08:31:15.096Z,34.43
2022-10-19T08:33:45.020Z,34.97
2022-10-19T08:36:14.512Z,35.73
2022-10-19T08:38:44.637Z,30.90
2022-10-19T08:41:23.242Z,38.30
2022-10-19T08:44:24.737Z,31.70
2022-10-19T08:46:57.892Z,35.27
2022-10-19T08:49:28.536Z,35.00
2022-10-19T08:51:59.539Z,42.13
2022-10-19T08:54:33.960Z,34.37
2022-10-19T08:57:08.126Z,32.53
2022-10-19T08:59:41.583Z,35.03
2022-10-19T09:02:15.833Z,36.03
2022-10-19T09:04:48.564Z,39.37
2022-10-19T09:07:24.993Z,32.77
2022-10-19T09:09:56.409Z,37.83
2022-10-19T09:12:30.804Z,37.20
2022-10-19T09:15:00.825Z,34.17
2022-10-19T09:17:29.602Z,29.07
2022-10-19T09:20:00.217Z,31.93
2022-10-19T09:22:31.282Z,27.77
2022-10-19T09:25:02.592Z,30.10
2022-10-19T09:27:33.496Z,27.67
2022-10-19T09:30:04.033Z,27.30
2022-10-19T09:32:34.206Z,21.97
2022-10-19T09:35:05.317Z,21.90
2022-10-19T09:37:34.316Z,22.77
2022-10-19T09:40:02.438Z,23.50
2022-10-19T09:42:33.411Z,21.03
2022-10-19T09:45:03.166Z,18.57
2022-10-19T09:47:34.396Z,17.03
2022-10-19T09:50:23.638Z,19.40
2022-10-19T09:52:53.684Z,17.70
2022-10-19T09:55:24.813Z,18.83
2022-10-19T09:57:59.328Z,20.53
2022-10-19T10:00:32.637Z,16.43
2022-10-19T10:03:00.784Z,18.90
2022-10-19T10:05:32.687Z,17.33
2022-10-19T10:08:02.409Z,19.13
2022-10-19T10:18:53.566Z,20.53
2022-10-19T10:21:25.665Z,15.73
2022-10-19T10:24:02.546Z,16.13
2022-10-19T10:26:30.854Z,18.13
2022-10-19T10:29:01.365Z,19.43
2022-10-19T10:31:30.988Z,16.07
2022-10-19T10:34:10.785Z,17.87
2022-10-19T10:36:51.045Z,16.13
2022-10-19T10:39:20.743Z,20.93
2022-10-19T10:41:49.688Z,20.07
2022-10-19T10:44:20.081Z,17.57
2022-10-19T10:46:53.029Z,15.57
2022-10-19T10:49:23.165Z,20.73
2022-10-19T10:51:53.291Z,18.03
2022-10-19T10:54:23.795Z,17.13
2022-10-19T10:57:06.645Z,18.73
2022-10-19T10:59:39.444Z,21.33
2022-10-19T11:02:14.413Z,15.17
2022-10-19T11:04:47.392Z,15.37
2022-10-19T11:07:18.840Z,13.37
2022-10-19T11:09:52.491Z,13.60
2022-10-19T11:12:25.580Z,14.33
2022-10-19T11:14:58.353Z,13.97
2022-10-19T11:17:27.961Z,15.23
2022-10-19T11:19:56.248Z,15.97
2022-10-19T11:22:29.359Z,15.33
2022-10-19T11:25:05.454Z,15.73
2022-10-19T11:27:39.380Z,16.23
2022-10-19T11:30:10.796Z,17.77
2022-10-19T11:32:47.513Z,21.90
2022-10-19T11:35:27.112Z,19.07
2022-10-19T11:38:18.729Z,18.27
2022-10-19T11:43:46.129Z,20.20
2022-10-19T11:46:17.885Z,19.67
2022-10-19T11:49:03.080Z,17.70
2022-10-19T11:51:35.131Z,21.87
2022-10-19T11:54:12.367Z,21.50
2022-10-19T11:57:02.207Z,21.60
2022-10-19T11:59:34.863Z,20.23
2022-10-19T12:02:06.951Z,20.93
2022-10-19T12:04:43.797Z,21.80
2022-10-19T12:07:19.534Z,21.60
2022-10-19T12:09:51.856Z,20.97
2022-10-19T12:12:25.924Z,19.90
2022-10-19T12:14:56.235Z,21.60
2022-10-19T12:17:27.460Z,19.30
2022-10-19T12:19:58.014Z,16.63
2022-10-19T12:22:28.141Z,15.87
2022-10-19T12:24:57.297Z,16.20
2022-10-19T12:27:30.005Z,19.23
2022-10-19T12:30:00.151Z,16.93
2022-10-19T12:32:29.195Z,17.17
2022-10-19T12:35:00.309Z,18.57
2022-10-19T12:37:31.366Z,16.63
2022-10-19T12:40:02.412Z,18.63
2022-10-19T12:42:35.105Z,17.47
2022-10-19T12:45:19.841Z,19.83
2022-10-19T12:48:07.050Z,23.53
2022-10-19T12:50:53.793Z,26.10
2022-10-19T12:56:01.674Z,29.40
2022-10-19T12:58:33.289Z,35.63
2022-10-19T13:01:02.180Z,35.67
2022-10-19T13:03:32.750Z,33.90
2022-10-19T13:06:02.098Z,34.17
2022-10-19T13:08:31.745Z,39.43
2022-10-19T13:11:07.457Z,34.20
2022-10-19T13:13:57.012Z,36.60
2022-10-19T13:16:40.065Z,33.93
2022-10-19T13:19:21.128Z,31.40
2022-10-19T13:21:51.235Z,34.70
2022-10-19T13:24:30.339Z,35.53
2022-10-19T13:27:17.209Z,34.50
2022-10-19T13:29:46.717Z,33.97
2022-10-19T13:32:33.706Z,35.47
2022-10-19T13:35:16.972Z,32.90
2022-10-19T13:37:45.253Z,33.40
2022-10-19T13:40:23.778Z,31.60
2022-10-19T13:42:59.441Z,33.33
2022-10-19T13:45:28.996Z,29.40
2022-10-19T13:47:59.068Z,28.33
2022-10-19T13:50:32.736Z,29.13
2022-10-19T13:53:17.854Z,31.40
2022-10-19T13:56:09.501Z,31.87
2022-10-19T13:58:57.859Z,33.33
2022-10-19T14:01:34.998Z,30.20
2022-10-19T14:04:07.936Z,31.57
2022-10-19T14:06:40.349Z,30.33
2022-10-19T14:09:32.313Z,27.20
2022-10-19T14:12:06.719Z,32.03
2022-10-19T14:19:47.903Z,27.37
2022-10-19T14:22:20.426Z,26.77
2022-10-19T14:24:48.668Z,22.33
2022-10-19T14:27:19.913Z,21.93
2022-10-19T14:29:48.976Z,18.60
2022-10-19T14:32:19.165Z,19.93
2022-10-19T14:34:49.040Z,17.40
2022-10-19T14:37:19.219Z,22.87
2022-10-19T14:39:59.231Z,19.33
2022-10-19T14:42:36.852Z,18.60
2022-10-19T14:45:05.711Z,21.53
2022-10-19T14:47:35.204Z,18.43
2022-10-19T14:50:04.278Z,17.83
2022-10-19T14:52:35.802Z,18.80
2022-10-19T14:55:07.122Z,19.83
2022-10-19T14:57:36.931Z,12.97
2022-10-19T15:00:08.631Z,14.30
2022-10-19T15:02:39.655Z,15.93
2022-10-19T15:05:17.077Z,14.80
2022-10-19T15:07:45.322Z,15.77
2022-10-19T15:10:20.289Z,15.13
2022-10-19T15:12:50.260Z,16.70
2022-10-19T15:15:20.273Z,16.33
2022-10-19T15:17:52.595Z,15.47
2022-10-19T15:20:25.376Z,19.30
2022-10-19T15:22:53.695Z,15.97
2022-10-19T15:25:26.764Z,15.03
2022-10-19T15:27:54.911Z,14.47
2022-10-19T15:30:28.389Z,16.93
2022-10-19T15:33:11.449Z,14.50
2022-10-19T15:35:40.316Z,10.93
2022-10-19T15:38:10.690Z,11.13
2022-10-19T15:40:39.977Z,14.73
2022-10-19T15:43:23.003Z,13.60
2022-10-19T15:46:00.827Z,13.53
2022-10-19T15:48:31.271Z,9.37
2022-10-19T15:50:59.423Z,15.30
2022-10-19T15:53:27.798Z,14.17
2022-10-19T15:55:56.041Z,15.03
2022-10-19T15:58:24.255Z,12.30
2022-10-19T16:00:52.439Z,11.70
2022-10-19T16:03:20.573Z,11.23
2022-10-19T16:05:50.095Z,12.60
2022-10-19T16:08:18.227Z,11.93
2022-10-19T16:10:46.367Z,14.77
2022-10-19T16:13:14.505Z,11.87
2022-10-19T16:15:42.638Z,11.10
2022-10-19T16:18:11.475Z,10.43
2022-10-19T16:20:41.922Z,14.63
2022-10-19T16:23:12.599Z,20.67
2022-10-19T16:25:40.829Z,10.37
2022-10-19T16:28:08.968Z,14.07
2022-10-19T16:30:37.414Z,13.07
2022-10-19T16:33:05.617Z,11.73
2022-10-19T16:35:33.789Z,11.03
2022-10-19T16:38:01.931Z,15.10
2022-10-19T16:40:32.332Z,13.83
2022-10-19T16:43:00.595Z,14.67
2022-10-19T16:45:28.904Z,14.93
2022-10-19T16:47:57.350Z,15.70
2022-10-19T16:50:25.503Z,12.87
2022-10-19T16:53:04.188Z,13.40
2022-10-19T16:55:33.676Z,12.33
2022-10-19T16:58:01.834Z,10.77
2022-10-19T17:00:30.303Z,13.87
2022-10-19T17:02:58.540Z,19.53
2022-10-19T17:05:26.791Z,11.90
2022-10-19T17:07:54.936Z,10.33
2022-10-19T17:10:23.107Z,15.57
2022-10-19T17:12:52.708Z,13.90
2022-10-19T17:18:08.991Z,15.13
2022-10-19T17:20:37.180Z,14.10
2022-10-19T17:23:05.336Z,12.33
2022-10-19T17:25:33.634Z,16.97
2022-10-19T17:28:03.112Z,18.87
2022-10-19T17:30:31.251Z,11.97
2022-10-19T17:32:59.501Z,14.40
2022-10-19T17:35:27.749Z,19.43
2022-10-19T17:37:55.946Z,16.53
2022-10-19T17:40:24.125Z,15.80
2022-10-19T17:42:52.296Z,17.10
2022-10-19T17:45:21.773Z,14.57
2022-10-19T17:47:50.004Z,19.40
2022-10-19T17:50:18.220Z,11.47
2022-10-19T17:52:46.710Z,12.80
2022-10-19T17:55:14.978Z,12.73
2022-10-19T17:57:43.219Z,12.30
2022-10-19T18:00:11.844Z,14.47
2022-10-19T18:02:41.396Z,10.73
2022-10-19T18:05:10.263Z,12.63
2022-10-19T18:07:38.677Z,14.83
2022-10-19T18:10:07.268Z,12.23
2022-10-19T18:12:35.590Z,13.73
2022-10-19T18:15:03.948Z,16.00
2022-10-19T18:17:32.179Z,13.73
2022-10-19T18:20:01.798Z,17.97
2022-10-19T18:22:29.998Z,12.27
2022-10-19T18:24:58.278Z,15.37
2022-10-19T18:27:26.537Z,15.47
2022-10-19T18:29:54.801Z,15.90
2022-10-19T18:32:22.990Z,13.03
2022-10-19T18:34:51.199Z,14.23
2022-10-19T18:37:20.741Z,14.03
2022-10-19T18:39:48.899Z,14.87
2022-10-19T18:42:17.746Z,12.23
2022-10-19T18:44:47.108Z,17.67
2022-10-19T18:47:15.253Z,14.77
2022-10-19T18:49:43.406Z,16.57
2022-10-19T18:52:11.548Z,21.47
2022-10-19T18:54:41.076Z,12.73
2022-10-19T18:57:09.559Z,20.67
2022-10-19T18:59:37.787Z,14.73
2022-10-19T19:02:07.864Z,15.67
2022-10-19T19:04:41.830Z,22.50
2022-10-19T19:07:10.158Z,21.03
2022-10-19T19:09:38.989Z,12.73
2022-10-19T19:12:08.517Z,17.77
2022-10-19T19:14:36.820Z,13.67
2022-10-19T19:17:04.997Z,14.80
2022-10-19T19:19:33.138Z,22.77
2022-10-19T19:22:07.803Z,14.17
2022-10-19T19:24:37.045Z,14.13
2022-10-19T19:27:05.316Z,15.80
2022-10-19T19:29:34.808Z,15.43
2022-10-19T19:32:04.067Z,19.63
2022-10-19T19:34:32.225Z,17.13
2022-10-19T19:37:00.406Z,17.03
2022-10-19T19:39:28.573Z,15.47
2022-10-19T19:41:56.726Z,20.40
2022-10-19T19:44:29.438Z,19.87
2022-10-19T19:46:59.324Z,21.87
2022-10-19T19:49:27.562Z,21.70
2022-10-19T19:51:56.115Z,21.30
2022-10-19T19:54:24.625Z,18.53
2022-10-19T19:56:53.100Z,18.20
2022-10-19T19:59:21.838Z,25.10
2022-10-19T20:01:50.113Z,23.20
2022-10-19T20:04:19.884Z,16.63
2022-10-19T20:06:48.018Z,18.40
2022-10-19T20:09:16.188Z,21.20
2022-10-19T20:11:45.565Z,20.60
2022-10-19T20:14:13.959Z,19.37
2022-10-19T20:16:42.148Z,22.37
2022-10-19T20:19:11.284Z,15.83
2022-10-19T20:21:41.365Z,18.37
2022-10-19T20:24:09.929Z,17.10
2022-10-19T20:26:38.141Z,17.97
2022-10-19T20:29:06.801Z,17.30
2022-10-19T20:31:39.552Z,13.00
2022-10-19T20:34:12.200Z,15.97
2022-10-19T20:36:41.947Z,20.63
2022-10-19T20:39:10.157Z,22.93
2022-10-19T20:41:38.344Z,18.50
2022-10-19T20:44:06.688Z,24.33
2022-10-19T20:46:36.827Z,22.97
2022-10-19T20:49:05.285Z,17.27
2022-10-19T20:51:36.460Z,18.23
2022-10-19T20:54:06.957Z,18.07
2022-10-19T20:56:36.270Z,16.20
2022-10-19T20:59:05.832Z,16.60
2022-10-19T21:01:35.362Z,17.13
2022-10-19T21:04:04.924Z,19.93
2022-10-19T21:06:33.973Z,16.77
2022-10-19T21:09:02.164Z,16.43
2022-10-19T21:11:32.711Z,15.17
2022-10-19T21:14:01.604Z,17.20
2022-10-19T21:16:33.503Z,20.10
2022-10-19T21:19:01.995Z,17.23
2022-10-19T21:21:31.912Z,15.80
2022-10-19T21:24:00.792Z,17.17
2022-10-19T21:26:29.520Z,16.23
2022-10-19T21:28:59.337Z,16.53
2022-10-19T21:31:28.091Z,13.53
2022-10-19T21:33:56.299Z,15.30
2022-10-19T21:36:25.075Z,16.37
2022-10-19T21:38:53.294Z,15.77
2022-10-19T21:41:26.208Z,15.10
2022-10-19T21:43:55.128Z,15.80
2022-10-19T21:46:25.793Z,17.23
2022-10-19T21:48:54.392Z,24.00
2022-10-19T21:51:24.761Z,19.37
2022-10-19T21:53:52.928Z,17.70
2022-10-19T21:56:21.065Z,20.10
2022-10-19T21:58:49.841Z,16.97
2022-10-19T22:01:18.459Z,16.77
2022-10-19T22:03:48.126Z,18.17
2022-10-19T22:06:16.570Z,18.37
2022-10-19T22:08:46.378Z,17.20
2022-10-19T22:11:15.069Z,18.33
2022-10-19T22:13:43.604Z,18.43
2022-10-19T22:16:12.670Z,21.03
2022-10-19T22:18:41.136Z,14.63
2022-10-19T22:21:11.592Z,18.13
2022-10-19T22:23:39.834Z,16.07
2022-10-19T22:26:14.848Z,18.17
2022-10-19T22:28:43.057Z,19.60
2022-10-19T22:31:11.301Z,19.10
2022-10-19T22:33:39.478Z,16.13
2022-10-19T22:36:09.602Z,21.27
2022-10-19T22:38:39.124Z,19.53
2022-10-19T22:41:07.308Z,18.33
2022-10-19T22:43:35.470Z,15.10
2022-10-19T22:46:03.632Z,18.60
2022-10-19T22:48:31.788Z,15.13
2022-10-19T22:50:59.924Z,15.87
2022-10-19T22:53:28.075Z,16.63
2022-10-19T22:55:57.580Z,16.10
2022-10-19T22:58:25.759Z,17.07
2022-10-19T23:01:01.077Z,22.10
2022-10-19T23:03:29.240Z,17.43
2022-10-19T23:05:57.469Z,17.53
2022-10-19T23:08:25.644Z,19.87
2022-10-19T23:10:53.861Z,17.07
2022-10-19T23:13:23.409Z,17.63
2022-10-19T23:15:51.610Z,18.30
2022-10-19T23:18:19.755Z,14.60
2022-10-19T23:20:54.269Z,15.30
2022-10-19T23:23:22.497Z,16.00
2022-10-19T23:26:00.379Z,14.27
2022-10-19T23:28:30.468Z,16.43
2022-10-19T23:30:59.279Z,16.70
2022-10-19T23:33:28.012Z,15.93
2022-10-19T23:35:56.159Z,18.67
2022-10-19T23:38:24.372Z,17.73
2022-10-19T23:40:52.506Z,18.40
2022-10-19T23:43:20.668Z,18.60
2022-10-19T23:45:50.152Z,17.27
2022-10-19T23:48:18.289Z,17.80
2022-10-19T23:50:46.468Z,18.17
2022-10-19T23:53:14.642Z,20.50
2022-10-19T23:55:42.787Z,18.17
2022-10-19T23:58:10.896Z,16.23
